createdAt,value
2019-05-20T00:01:53.189Z,21.70
2019-05-20T00:10:10.847Z,20.50
2019-05-20T00:18:28.319Z,18.80
2019-05-20T00:26:45.775Z,22.13
2019-05-20T00:35:03.317Z,20.70
2019-05-20T00:43:20.817Z,22.80
2019-05-20T00:51:38.357Z,20.57
2019-05-20T00:59:55.773Z,21.43
2019-05-20T01:08:13.217Z,20.70
2019-05-20T01:16:30.742Z,21.50
2019-05-20T01:24:48.258Z,22.00
2019-05-20T01:33:13.901Z,24.30
2019-05-20T01:41:24.910Z,22.02
2019-05-20T01:49:42.493Z,21.30
2019-05-20T01:58:00.014Z,21.17
2019-05-20T02:06:17.797Z,30.80
2019-05-20T02:14:40.638Z,23.97
2019-05-20T02:23:14.479Z,20.37
2019-05-20T02:31:31.936Z,24.10
2019-05-20T02:39:49.394Z,24.20
2019-05-20T02:48:06.847Z,22.70
2019-05-20T02:56:24.288Z,24.10
2019-05-20T03:04:41.713Z,19.40
2019-05-20T03:12:59.154Z,23.00
2019-05-20T03:21:16.639Z,22.33
2019-05-20T03:29:34.094Z,22.20
2019-05-20T03:37:51.543Z,24.40
2019-05-20T03:46:09.044Z,23.47
2019-05-20T03:54:26.553Z,23.40
2019-05-20T04:02:43.969Z,23.63
2019-05-20T04:11:01.475Z,20.40
2019-05-20T04:19:19.006Z,18.67
2019-05-20T04:27:36.475Z,19.40
2019-05-20T04:35:53.991Z,20.30
2019-05-20T04:44:11.420Z,19.73
2019-05-20T04:52:28.869Z,21.35
2019-05-20T05:00:53.473Z,22.43
2019-05-20T05:09:10.975Z,22.05
2019-05-20T05:17:28.436Z,23.40
2019-05-20T05:25:45.899Z,17.70
2019-05-20T05:34:03.364Z,18.40
2019-05-20T05:42:20.845Z,19.77
2019-05-20T05:50:38.413Z,20.63
2019-05-20T05:58:55.833Z,17.70
2019-05-20T06:07:13.281Z,17.40
2019-05-20T06:15:31.246Z,22.87
2019-05-20T06:23:50.087Z,21.87
2019-05-20T06:32:07.595Z,17.60
2019-05-20T06:40:25.463Z,27.40
2019-05-20T06:48:43.342Z,16.80
2019-05-20T06:57:00.797Z,14.80
2019-05-20T07:05:18.246Z,15.07
2019-05-20T07:13:35.733Z,18.53
2019-05-20T07:21:53.453Z,14.83
2019-05-20T07:30:15.213Z,16.07
2019-05-20T07:38:31.094Z,12.93
2019-05-20T07:46:48.559Z,26.93
2019-05-20T07:55:06.737Z,10.77
2019-05-20T08:03:24.284Z,11.93
2019-05-20T08:11:41.817Z,9.40
2019-05-20T08:19:59.379Z,10.87
2019-05-20T08:28:16.954Z,11.20
2019-05-20T08:36:34.510Z,9.80
2019-05-20T08:44:52.728Z,7.97
2019-05-20T08:53:10.301Z,17.03
2019-05-20T09:01:27.765Z,6.97
2019-05-20T09:09:45.416Z,7.57
2019-05-20T09:18:03.281Z,10.07
2019-05-20T09:26:20.978Z,9.93
2019-05-20T09:34:38.779Z,11.00
2019-05-20T09:42:56.411Z,8.00
2019-05-20T09:51:14.027Z,7.95
2019-05-20T09:59:42.851Z,8.23
2019-05-20T10:07:51.450Z,7.77
2019-05-20T10:16:11.601Z,10.80
2019-05-20T10:24:29.224Z,9.13
2019-05-20T10:32:46.936Z,7.63
2019-05-20T10:41:04.443Z,7.87
2019-05-20T10:49:21.985Z,9.63
2019-05-20T10:57:39.688Z,6.57
2019-05-20T11:05:58.580Z,5.90
2019-05-20T11:14:36.925Z,8.83
2019-05-20T11:22:54.417Z,15.70
2019-05-20T11:31:12.132Z,7.10
2019-05-20T11:39:33.782Z,10.23
2019-05-20T11:47:48.860Z,11.90
2019-05-20T11:56:06.294Z,7.57
2019-05-20T12:04:23.845Z,13.83
2019-05-20T12:12:41.758Z,18.10
2019-05-20T12:21:16.980Z,16.93
2019-05-20T12:29:34.740Z,10.57
2019-05-20T12:37:53.391Z,13.43
2019-05-20T12:46:10.858Z,12.33
2019-05-20T12:54:28.595Z,9.33
2019-05-20T13:02:46.155Z,9.40
2019-05-20T13:11:03.697Z,11.00
2019-05-20T13:19:21.219Z,10.57
2019-05-20T13:27:38.770Z,15.40
2019-05-20T13:35:56.319Z,13.23
2019-05-20T13:44:13.765Z,14.87
2019-05-20T13:52:31.576Z,12.27
2019-05-20T14:00:49.053Z,11.47
2019-05-20T14:09:07.569Z,13.37
2019-05-20T14:17:25.483Z,13.70
2019-05-20T14:25:42.992Z,18.30
2019-05-20T14:34:00.461Z,16.23
2019-05-20T14:42:17.965Z,19.87
2019-05-20T14:50:35.608Z,18.47
2019-05-20T14:58:53.591Z,26.40
2019-05-20T15:07:11.923Z,27.83
2019-05-20T15:15:29.961Z,31.07
2019-05-20T15:23:47.394Z,37.03
2019-05-20T15:32:04.886Z,30.67
2019-05-20T15:40:24.361Z,16.43
2019-05-20T15:48:41.725Z,15.90
2019-05-20T15:56:59.348Z,9.90
2019-05-20T16:05:17.971Z,13.17
2019-05-20T16:13:35.502Z,13.78
2019-05-20T16:21:52.965Z,13.90
2019-05-20T16:30:11.431Z,15.60
2019-05-20T16:38:29.027Z,18.43
2019-05-20T16:46:46.516Z,17.03
2019-05-20T16:55:04.330Z,24.23
2019-05-20T17:03:21.790Z,23.67
2019-05-20T17:11:39.620Z,25.30
2019-05-20T17:19:57.428Z,24.23
2019-05-20T17:28:14.967Z,26.87
2019-05-20T17:36:32.476Z,29.42
2019-05-20T17:44:50.015Z,24.07
2019-05-20T17:53:07.495Z,23.60
2019-05-20T18:01:25.010Z,29.13
2019-05-20T18:09:46.823Z,22.87
2019-05-20T18:18:04.404Z,36.33
2019-05-20T18:26:21.955Z,67.20
2019-05-20T18:34:39.763Z,16.30
2019-05-20T18:42:57.354Z,23.20
2019-05-20T18:51:14.868Z,28.40
2019-05-20T18:59:32.453Z,43.58
2019-05-20T19:07:50.277Z,42.37
2019-05-20T19:16:08.020Z,51.50
2019-05-20T19:24:25.536Z,40.00
2019-05-20T19:32:43.052Z,31.30
2019-05-20T19:41:02.593Z,33.20
2019-05-20T19:49:20.185Z,35.80
2019-05-20T19:57:37.848Z,36.87
2019-05-20T20:05:55.337Z,34.38
2019-05-20T20:14:12.819Z,31.23
2019-05-20T20:22:30.315Z,33.07
2019-05-20T20:30:47.781Z,28.67
2019-05-20T20:39:06.095Z,32.87
2019-05-20T20:47:23.591Z,31.10
2019-05-20T20:55:41.029Z,35.70
2019-05-20T21:03:58.476Z,41.53
2019-05-20T21:12:15.933Z,31.40
2019-05-20T21:20:33.414Z,29.87
2019-05-20T21:28:50.967Z,29.50
2019-05-20T21:37:08.427Z,27.95
2019-05-20T21:45:25.863Z,24.70
2019-05-20T21:53:43.306Z,34.67
2019-05-20T22:02:01.034Z,28.77
2019-05-20T22:10:18.497Z,41.47
2019-05-20T22:18:36.049Z,35.90
2019-05-20T22:26:53.639Z,37.30
2019-05-20T22:35:11.697Z,38.67
2019-05-20T22:43:29.144Z,41.77
2019-05-20T22:51:46.718Z,39.00
2019-05-20T23:00:04.599Z,37.23
2019-05-20T23:08:22.120Z,45.10
2019-05-20T23:16:39.705Z,43.17
2019-05-20T23:24:57.157Z,45.80
2019-05-20T23:33:14.606Z,42.03
2019-05-20T23:41:33.008Z,41.00
2019-05-20T23:49:50.448Z,39.00
2019-05-20T23:58:07.918Z,35.00
